KHFD/HFD METAR and TAF weather

Enter ICAO airport designator
Station Type Date Time Source
KHFD METAR 2020/09/26 21:53 UTC NOAA

KHFD 262153Z 16007KT 10SM SCT034 23/16 A3005 RMK AO2 SLP175 T02330156


Station Type Date Time Source
KHFD Decoded METAR 2020/09/26 21:53 UTC NOAA

HARTFORD-BRAINARD AIRPORT, CT, United States (KHFD) 41-44N 072-39W 4M
Sep 26, 2020 - 05:53 PM EDT / 2020.09.26 2153 UTC
Wind: from the SSE (160 degrees) at 8 MPH (7 KT):0
Visibility: 10 mile(s):0
Sky conditions: partly cloudy
Temperature: 73.9 F (23.3 C)
Dew Point: 60.1 F (15.6 C)
Relative Humidity: 61%
Pressure (altimeter): 30.05 in. Hg (1017 hPa)
ob: KHFD 262153Z 16007KT 10SM SCT034 23/16 A3005 RMK AO2 SLP175 T02330156
cycle: 22

Station Type Date Time Source
KHFD TAF UTC NOAA

Error!

Example: see airport list